Details From LIMJ - Genova Sestri
To LIRQ - Firenze
Flight Number -
Tags decoded
Created
Modified
Stats Distance 112 nm / 208 km
Max Altitude 0 ft / 0 m
Waypoints 7
Social Downloads 2
Likes 0
Share VATSIM

Download

Looking for another format? Having issues loading an existing format? Contact us
Advertisement - Login to hide

Notes

Requested: LIMJ GEN KALMO BEROK RUXOL FRZ LIRQ

Route

LIMJ GEN KALMO BEROK RUXOL FRZ LIRQ

ID Type Via Altitude Latitude Longitude Leg Dist Tot Dist Heading (true) Name
O LIMJ APT - 0 ft / 0 m 44.41196˚ 8.84187˚ - 0 nm - Genova Sestri
GEN NDB - 0 ft / 0 m 44.42389˚ 9.08333˚ 10 nm 10 nm 86° / 86° GENOVA NDB
KALMO FIX - 0 ft / 0 m 44.32167˚ 9.59417˚ 22 nm 33 nm 105° / 106° -
BEROK FIX - 0 ft / 0 m 44.16556˚ 10.35167˚ 33 nm 67 nm 106° / 106° -
RUXOL FIX - 0 ft / 0 m 44.11528˚ 10.59306˚ 10 nm 77 nm 106° / 106° -
FRZ VOR - 0 ft / 0 m 44.02718˚ 11.00331˚ 18 nm 96 nm 106° / 107° FIRENZE VORTAC
O LIRQ APT - 0 ft / 0 m 43.80998˚ 11.20512˚ 15 nm 112 nm 146° / 146° Firenze

Altitude Profile

Advertisement - Login to hide

LIMJ

Details ICAO LIMJ (GOA)
Name Genova Sestri
Region Italy
Timezone Unknown (UTC+0.0)
Stats Elevation 13 ft / 4 m (AMSL)
Location 44.411957° 8.841866°
Runways 1
Magnetic Variation 2.388° E

METAR

LIMJ 152150Z 10004KT 050V150 CAVOK 09/M03 Q0999

Decode

TAF

TAF LIMJ 151700Z 1518/1618 03008KT CAVOK

Decode

Departure Runways

ID Width Length Bearing (true) Bearing (mag) Surface Threshold Offset Overrun Length
10 148 ft / 45 m 9,574 ft / 2,918 m 105.39° 103.00° Asphalt 0 ft / 0 m 0 ft / 0 m
28 148 ft / 45 m 9,574 ft / 2,918 m 285.41° 283.02° Asphalt 538 ft / 164 m 0 ft / 0 m

LIRQ

Details ICAO LIRQ (FLR)
Name Firenze
Region Italy
Timezone Europe/Rome (UTC+1.0)
Stats Elevation 142 ft / 43 m (AMSL)
Location 43.809984° 11.205118°
Runways 1
Magnetic Variation 2.875° E

METAR

LIRQ 152150Z 10004KT 040V160 9999 SCT035 09/06 Q0998

Decode

TAF

TAF LIRQ 151700Z 1518/1618 VRB05KT 9999 SCT025 BKN050 TEMPO 1518/1606 3000 BR TEMPO 1606/1618 4000 SHRA

Decode

Destination Runways

ID Width Length Bearing (true) Bearing (mag) Surface Threshold Offset Overrun Length
05 98 ft / 30 m 5,420 ft / 1,652 m 48.52° 45.64° Asphalt 492 ft / 150 m 0 ft / 0 m
23 98 ft / 30 m 5,420 ft / 1,652 m 228.53° 225.65° Asphalt 2,287 ft / 697 m 0 ft / 0 m

Approach Navaids

Runway Type Ident Frequency Range Bearing (true) Bearing (mag) Slope Elevation
05 Localiser IFZ 110.30 MHz 18 nm / 33 km 48.10° 45.23° - 131 ft / 40 m (AMSL)
05 Glidescope IFZ 110.30 MHz 10 nm / 19 km 47.00° 44.12° 3.00° 144 ft / 44 m (AMSL)
05 DME IFZ 110.30 MHz 18 nm / 33 km - - - 144 ft / 44 m (AMSL)

Popular Alternatives